Live≪ l'Annezinoise ≫

Le 16/11/2014 Attention événement 2015 !!! Calendrier 2017



Suivez en direct le live de "l'Annezinoise", Sun 16 November 2014

2kmL'ANNEZINOISE (10km)LA POPULAIRE (5km)

2km
Scratch N° dossard Nom Prénom Club Temps Cat. Clt. Cat. Course
0001 494 THELLIER VINCENT 854 00:06:48 Minime M 1 2km
0002 479 MELAYE MAXENCE 869 00:06:52 Minime M 2 2km
0003 468 LEVEYER AXEL 880 00:07:01 Benjamin M 1 2km
0004 481 CADIOU CHLOE 867 00:07:11 Minime F 1 2km
0005 467 CRETON ANTONY 881 00:07:31 Benjamin M 2 2km
0006 476 NICLAEYS TOM 872 00:07:32 Benjamin M 3 2km
0007 474 LEVISSE LOUIS 874 00:07:34 Benjamin M 4 2km
0008 477 BLANQUART MARGAUX 871 00:07:40 Minime F 2 2km
0009 469 BOUTTE MATHEO 879 00:07:51 Benjamin M 5 2km
0010 500 DELFORGE PAUL 848 00:07:53 Benjamin M 6 2km
0011 489 FOUBERT FLORE 859 00:08:04 Minime F 3 2km
0012 466 DAIOS Noémie 882 00:08:05 Minime F 4 2km
0013 491 SERLET JUSTINE 857 00:08:25 Benjamin F 1 2km
0014 472 CEENAEME CAMILLE 876 00:08:29 Benjamin F 2 2km
0015 482 POULLY LOUISE 866 00:08:32 Minime F 5 2km
0016 496 MOLCRETTE ALAN 852 00:08:34 Benjamin M 7 2km
0017 480 DELEBASSEE THEO 868 00:09:14 Benjamin M 8 2km
0018 478 DHEDIN TIFFENN 870 00:09:32 Benjamin F 3 2km
0019 497 LERICQUE ZOE 851 00:09:36 Minime F 6 2km
0020 473 DUSSY SIMON 875 00:09:38 Benjamin M 9 2km
0021 470 FOSSE PAULINE 878 00:09:40 Minime F 7 2km
0022 499 QUEVAT ELISE 849 00:09:40 Benjamin F 4 2km
0023 498 BAR MIA 850 00:09:40 Minime F 8 2km
0024 475 DOUBLET CHANELLE 873 00:09:41 Benjamin F 5 2km
0025 495 HOBERG CARLA 853 00:09:51 Benjamin F 6 2km
0026 471 DUPONCHELLE Clélia 877 00:13:55 Benjamin F 7 2km
DNS 483 NEUFVILLE ELOISE 865 00:00:00 Minime F DNS 2km
DNS 484 NEUFVILLE HECTOR 864 00:00:00 Benjamin M DNS 2km
DNS 485 LEMOINE ELISE 863 00:00:00 Minime F DNS 2km
DNS 486 LELONG CHLOE 862 00:00:00 Benjamin F DNS 2km
DNS 487 KACMARECK LEA 861 00:00:00 Minime F DNS 2km
DNS 488 HANNEDOUCHE LEONIE 860 00:00:00 Minime F DNS 2km
DNS 490 FILIATRE ADELE 858 00:00:00 Benjamin F DNS 2km
DNS 492 AGUIAR LUCAS 856 00:00:00 Benjamin M DNS 2km
DNS 493 BAUTISTA LEA 855 00:00:00 Cadet F DNS 2km


L'ANNEZINOISE (10km)
Scratch N° dossard Nom Prénom Club Temps Cat. Clt. Cat. Course
0001 187 DELEBECQUE OLIVIER VAL DE SOMME 00:35:00 Vétéran 1 M 1 L'ANNEZINOISE (10km)
0002 83 HECQUET Vincent AC VERMELLES 00:35:46 Senior M 1 L'ANNEZINOISE (10km)
0003 114 GOURDIN Marcel ASMJ 00:36:44 Vétéran 1 M 2 L'ANNEZINOISE (10km)
0004 205 LECOINTE DAMIEN BETHUNE ATHLE 00:37:04 Junior M 1 L'ANNEZINOISE (10km)
0005 178 BRAHIM BENOIT VERMELLES 00:37:45 Senior M 2 L'ANNEZINOISE (10km)
0006 176 BRAHIM ARNAUD VERMELLES 00:37:46 Senior M 3 L'ANNEZINOISE (10km)
0007 195 VEST SEBASTIEN 00:37:54 Senior M 4 L'ANNEZINOISE (10km)
0008 165 RUAMPS Jérôme 00:38:00 Senior M 5 L'ANNEZINOISE (10km)
0009 209 DELBECQ JEAN FRANCOIS 00:38:03 Senior M 6 L'ANNEZINOISE (10km)
0010 163 BENTIVEGNA Jeremy Artois ATHL 00:38:08 Senior M 7 L'ANNEZINOISE (10km)
0011 200 DELASSUS FRANCIS Artois ATHLE 00:38:15 Vétéran 1 M 3 L'ANNEZINOISE (10km)
0012 207 DRUMEZ NICOLAS 00:38:20 Senior M 8 L'ANNEZINOISE (10km)
0013 87 CASSEZ Remi TEAM RRM 00:38:25 Senior M 9 L'ANNEZINOISE (10km)
0014 169 MANIL Olivier 00:38:31 Vétéran 1 M 4 L'ANNEZINOISE (10km)
0015 126 CORBEEL Remi 00:38:37 Senior M 10 L'ANNEZINOISE (10km)
0016 89 CHOQUET Greg 00:38:47 Vétéran 1 M 5 L'ANNEZINOISE (10km)
0017 88 STEEVENART Sebastien 00:38:53 Senior M 11 L'ANNEZINOISE (10km)
0018 67 BERNARD Julien 00:38:59 Senior M 12 L'ANNEZINOISE (10km)
0019 208 DISTINGUIN GAEL 00:38:59 Senior M 13 L'ANNEZINOISE (10km)
0020 77 BAUTISTA Theo 00:39:06 Junior M 2 L'ANNEZINOISE (10km)
0021 175 LEROUX DAVID 00:39:12 Senior M 14 L'ANNEZINOISE (10km)
0022 173 DERVAUX RAPHAEL 00:39:17 Senior M 15 L'ANNEZINOISE (10km)
0023 180 PURNELLE RENAUD 00:39:26 Vétéran 2 M 1 L'ANNEZINOISE (10km)
0024 193 SANTERRE SEBASTIEN 00:39:30 Senior M 16 L'ANNEZINOISE (10km)
0025 225 BAUWE DAVID Artois ATHLE 00:39:51 Senior M 17 L'ANNEZINOISE (10km)
0026 199 POISSON FREDERIC 00:40:00 Vétéran 1 M 6 L'ANNEZINOISE (10km)
0027 135 JACQUIN David PASS'RUNNING 00:40:04 Vétéran 1 M 7 L'ANNEZINOISE (10km)
0028 219 OURDOUILIE JORDAN 00:40:11 Espoir M 1 L'ANNEZINOISE (10km)
0029 69 ROLLAND Bruno 00:40:11 Senior M 18 L'ANNEZINOISE (10km)
0030 86 TASIEMSKI Patrick Artois ATHL 00:40:50 Vétéran 1 M 8 L'ANNEZINOISE (10km)
0031 70 VERCOUTE Mickael 00:40:54 Vétéran 1 M 9 L'ANNEZINOISE (10km)
0032 216 MATHYS LUC 00:41:01 Senior M 19 L'ANNEZINOISE (10km)
0033 108 MONDO Damien 00:41:03 Vétéran 1 M 10 L'ANNEZINOISE (10km)
0034 230 COOPMAN FREDDY UNIRUN 00:41:22 Vétéran 1 M 11 L'ANNEZINOISE (10km)
0035 133 JUSTIN Yannick 00:41:29 Senior M 20 L'ANNEZINOISE (10km)
0036 53 JALMS Guillaume 00:41:34 Espoir M 2 L'ANNEZINOISE (10km)
0037 142 PINCEDE Francois 00:41:36 Junior M 3 L'ANNEZINOISE (10km)
0038 76 BOURGOIS Mickael TEAM CT DUR 00:41:36 Senior M 21 L'ANNEZINOISE (10km)
0039 150 CHEVALIER Mederic RUNNING GROUP 00:41:37 Junior M 4 L'ANNEZINOISE (10km)
0040 94 DUBOIS Alexis 00:41:38 Senior M 22 L'ANNEZINOISE (10km)
0041 102 COPIN Sebastien RC NOYELLE S LENS 00:41:39 Senior M 23 L'ANNEZINOISE (10km)
0042 172 WATEL eric 00:41:41 Vétéran 2 M 2 L'ANNEZINOISE (10km)
0043 189 CRUCHET DANY Artois ATHLE 00:41:52 Vétéran 1 M 12 L'ANNEZINOISE (10km)
0044 19 NICOD Philippe Artois ATHL 00:41:53 Vétéran 2 M 3 L'ANNEZINOISE (10km)
0045 147 DAVIAUD Fabrice Artois ATHL 00:42:03 Vétéran 1 M 13 L'ANNEZINOISE (10km)
0046 121 DUQUESNE Guillaume 00:42:06 Vétéran 1 M 14 L'ANNEZINOISE (10km)
0047 191 MARQUILLY ALEXANDRE 00:42:26 Junior M 5 L'ANNEZINOISE (10km)
0048 22 DAUBRESSE Laurent USA LIEVIN 00:42:28 Espoir M 3 L'ANNEZINOISE (10km)
0049 194 MOTHIRON LAURENT 00:42:43 Vétéran 1 M 15 L'ANNEZINOISE (10km)
0050 234 PRUD'HOMME LOUIS 00:42:46 Senior M 24 L'ANNEZINOISE (10km)
0051 109 DESCHAMPS Cedric 00:42:52 Senior M 25 L'ANNEZINOISE (10km)
0052 32 MOLCRETTE Vincent 00:42:55 Vétéran 1 M 16 L'ANNEZINOISE (10km)
0053 58 LAGNEAU Jean-Luc 00:42:57 Vétéran 1 M 17 L'ANNEZINOISE (10km)
0054 93 LOUCHART David 00:43:02 Senior M 26 L'ANNEZINOISE (10km)
0055 186 MOINSE DANY 00:43:08 Vétéran 1 M 18 L'ANNEZINOISE (10km)
0056 158 DELEBARRE Thibault RUNNING GROUP 00:43:08 Senior M 27 L'ANNEZINOISE (10km)
0057 78 DEWERT Jean Philippe 00:43:10 Espoir M 4 L'ANNEZINOISE (10km)
0058 47 BROGNARD Stephanie LOUP BLANC 00:43:26 Vétéran 1 F 1 L'ANNEZINOISE (10km)
0059 96 DAIOS Elise 00:43:27 Vétéran 1 F 2 L'ANNEZINOISE (10km)
0060 183 WERY LIONEL 00:43:41 Vétéran 1 M 19 L'ANNEZINOISE (10km)
0061 28 CHRISTOFFEL Luc 00:43:44 Vétéran 1 M 20 L'ANNEZINOISE (10km)
0062 9 LEFEBVRE Alexandre 00:43:48 Senior M 28 L'ANNEZINOISE (10km)
0063 129 NOWOCZYN Alexis Artois ATHL 00:43:49 Vétéran 1 M 21 L'ANNEZINOISE (10km)
0064 196 CHUFFART LAETITIA VERMELLES 00:43:58 Vétéran 1 F 3 L'ANNEZINOISE (10km)
0065 154 HANQUET Benjamin RUNNING GROUP 00:43:59 Senior M 29 L'ANNEZINOISE (10km)
0066 41 DECOBERT Nicolas JC LAPUGNOY 00:44:01 Senior M 30 L'ANNEZINOISE (10km)
0067 39 DELANNOY Francois JC LAPUGNOY 00:44:01 Senior M 31 L'ANNEZINOISE (10km)
0068 74 CASSEL Xavier 00:44:26 Vétéran 1 M 22 L'ANNEZINOISE (10km)
0069 26 HENAUX Jean Michel 00:44:35 Vétéran 2 M 4 L'ANNEZINOISE (10km)
0070 168 ?Dossard #168 00:44:41 Senior M 32 L'ANNEZINOISE (10km)
0071 127 VERAGUE Romain Artois ATHL 00:44:51 Senior M 33 L'ANNEZINOISE (10km)
0072 84 LEFEBVRE Kevin 00:45:08 Espoir M 5 L'ANNEZINOISE (10km)
0073 85 HENNION Phillipe 00:45:09 Vétéran 1 M 23 L'ANNEZINOISE (10km)
0074 105 PETITPAS Johann JC LAPUGNOY 00:45:34 Vétéran 1 M 24 L'ANNEZINOISE (10km)
0075 116 DEBRAY Maxime 00:45:58 Senior M 34 L'ANNEZINOISE (10km)
0076 60 DELIERS Patrice Artois ATHL 00:46:02 Vétéran 1 M 25 L'ANNEZINOISE (10km)
0077 164 BIENCOURT Laurent 00:46:02 Vétéran 1 M 26 L'ANNEZINOISE (10km)
0078 177 DEPLANQUE BRUNO VERMELLES AC 00:46:09 Vétéran 2 M 5 L'ANNEZINOISE (10km)
0079 30 DURANT Nathalie 00:46:11 Vétéran 1 F 4 L'ANNEZINOISE (10km)
0080 61 LEGRAND Patrice 00:46:19 Vétéran 3 M 1 L'ANNEZINOISE (10km)
0081 6 CUVILLIER Manuelle 00:46:21 Senior F 1 L'ANNEZINOISE (10km)
0082 43 WICKAERT Christophe 00:46:26 Vétéran 1 M 27 L'ANNEZINOISE (10km)
0083 82 GOSSIAUX Julien ACA ACHICOURT 00:46:29 Senior M 35 L'ANNEZINOISE (10km)
0084 31 MOLCRETTE Marie Noelle 00:46:34 Vétéran 1 F 5 L'ANNEZINOISE (10km)
0085 228 LEPILLIET PATRICK 00:46:35 Vétéran 1 M 28 L'ANNEZINOISE (10km)
0086 81 LEFRANCQ Remi 00:46:36 Vétéran 1 M 29 L'ANNEZINOISE (10km)
0087 49 DELTOMBE Nicolas 00:46:41 Senior M 36 L'ANNEZINOISE (10km)
0088 132 JUSTIN Christian 00:46:42 Vétéran 2 M 6 L'ANNEZINOISE (10km)
0089 151 CEROUTER Gwendoline RUNNING GROUP 00:46:45 Senior F 2 L'ANNEZINOISE (10km)
0090 213 DUFRASNE FREDERIC 00:46:46 Senior M 37 L'ANNEZINOISE (10km)
0091 153 BLANQUART Michael RUNNING GROUP 00:46:47 Vétéran 1 M 30 L'ANNEZINOISE (10km)
0092 71 MOREL Jean Marie 00:46:54 Vétéran 3 M 2 L'ANNEZINOISE (10km)
0093 146 MAIRESSE Antoine Artois ATHL 00:46:56 Senior M 38 L'ANNEZINOISE (10km)
0094 100 DAVIGNY Jean Claude JC LAPUGNOY 00:47:01 Vétéran 2 M 7 L'ANNEZINOISE (10km)
0095 112 LEFEVRE Remy 00:47:05 Senior M 39 L'ANNEZINOISE (10km)
0096 33 LERICQUE Philippe 00:47:05 Vétéran 1 M 31 L'ANNEZINOISE (10km)
0097 106 WICQUART Christian 00:47:06 Vétéran 1 M 32 L'ANNEZINOISE (10km)
0098 91 GUITARD Francois 00:47:17 Senior M 40 L'ANNEZINOISE (10km)
0099 166 ?Dossard #166 00:47:40 Senior M 41 L'ANNEZINOISE (10km)
0100 227 BIALLAIS PATRICK 00:47:42 Vétéran 2 M 8 L'ANNEZINOISE (10km)
0101 220 SEPIETER GABIN 00:47:58 Espoir M 6 L'ANNEZINOISE (10km)
0102 57 BAR Frederic RUNNING GROUP 00:48:07 Senior M 42 L'ANNEZINOISE (10km)
0103 124 VANELLE Thomas 00:48:10 Senior M 43 L'ANNEZINOISE (10km)
0104 198 DERICBOURG BENOIT 00:48:12 Senior M 44 L'ANNEZINOISE (10km)
0105 141 WAGON Thierry 00:48:13 Vétéran 2 M 9 L'ANNEZINOISE (10km)
0106 72 LE TALLEC Vincent 00:48:19 Vétéran 1 M 33 L'ANNEZINOISE (10km)
0107 75 PECKEU Jerome 00:48:22 Vétéran 1 M 34 L'ANNEZINOISE (10km)
0108 143 PINCEDE Patrick Artois ATHL 00:48:26 Vétéran 1 M 35 L'ANNEZINOISE (10km)
0109 229 COMPAGNON NICOLAS 00:48:27 Senior M 45 L'ANNEZINOISE (10km)
0110 46 LAWNICZAK Rene LOUP BLANC 00:48:35 Vétéran 2 M 10 L'ANNEZINOISE (10km)
0111 20 DEFRANCE Emmanuel 00:48:44 Vétéran 1 M 36 L'ANNEZINOISE (10km)
0112 15 PAVY Michel 00:48:50 Vétéran 1 M 37 L'ANNEZINOISE (10km)
0113 79 BENARD Jean Marc Artois ATHL 00:48:55 Vétéran 2 M 11 L'ANNEZINOISE (10km)
0114 42 LEFEBVRE Gaetan 00:49:01 Senior M 46 L'ANNEZINOISE (10km)
0115 54 REMOLEUX Maxence 00:49:01 Senior M 47 L'ANNEZINOISE (10km)
0116 55 HERMANT Yannick 00:49:01 Senior M 48 L'ANNEZINOISE (10km)
0117 148 LECLERCQ Dominique RUNNING GROUP 00:49:05 Vétéran 2 M 12 L'ANNEZINOISE (10km)
0118 128 PAUCHET Quentin 00:49:06 Senior M 49 L'ANNEZINOISE (10km)
0119 73 DUCATILLON Julien 00:49:22 Senior M 50 L'ANNEZINOISE (10km)
0120 232 VAILLART PATRICE 00:49:36 Vétéran 2 M 13 L'ANNEZINOISE (10km)
0121 21 RUMEAU Mathieu 00:49:38 Senior M 51 L'ANNEZINOISE (10km)
0122 233 BOCHU MICHEL 00:49:38 Vétéran 2 M 14 L'ANNEZINOISE (10km)
0123 17 GUILBERT Frederic 00:49:41 Senior M 52 L'ANNEZINOISE (10km)
0124 104 ZEGGAI Osine RC NOYELLE S LENS 00:49:47 Vétéran 1 M 38 L'ANNEZINOISE (10km)
0125 8 PRUVOST Michel 00:49:50 Vétéran 1 M 39 L'ANNEZINOISE (10km)
0126 10 QUETIEZ Christophe 00:49:51 Vétéran 1 M 40 L'ANNEZINOISE (10km)
0127 4 BOORTE Maxime 00:49:55 Senior M 53 L'ANNEZINOISE (10km)
0128 144 VERSLUYS Geregory 00:49:55 Senior M 54 L'ANNEZINOISE (10km)
0129 103 DELOBELLE Emilie RC NOYELLE S LENS 00:49:58 Senior F 3 L'ANNEZINOISE (10km)
0130 185 FLEURY MAXIME 00:50:00 Senior M 55 L'ANNEZINOISE (10km)
0131 224 TAILLY REGIS 00:50:03 Vétéran 2 M 15 L'ANNEZINOISE (10km)
0132 226 LIGNIER PATRICK Artois ATHLE 00:50:22 Vétéran 3 M 3 L'ANNEZINOISE (10km)
0133 29 BILLET Mathieu 00:50:41 Senior M 56 L'ANNEZINOISE (10km)
0134 139 BOURDON Gerard 00:50:47 Vétéran 2 M 16 L'ANNEZINOISE (10km)
0135 7 LEFRANCQ Florence 00:50:49 Senior F 4 L'ANNEZINOISE (10km)
0136 18 BEAUDET J F RUNNING GROUP 00:51:06 Senior M 57 L'ANNEZINOISE (10km)
0137 95 DUBOIS Helene 00:51:13 Senior F 5 L'ANNEZINOISE (10km)
0138 118 DELABROYE Bruno 00:51:18 Vétéran 2 M 17 L'ANNEZINOISE (10km)
0139 156 DUPONT Eric RUNNING GROUP 00:51:20 Vétéran 1 M 41 L'ANNEZINOISE (10km)
0140 134 FLAMENT Cedric 00:51:25 Senior M 58 L'ANNEZINOISE (10km)
0141 136 CARON Corrine VERMELLES AC 00:51:29 Senior F 6 L'ANNEZINOISE (10km)
0142 211 LETUFFE LIONEL 00:51:36 Vétéran 1 M 42 L'ANNEZINOISE (10km)
0143 212 LETUFFE SOPHIE 00:51:36 Vétéran 1 F 6 L'ANNEZINOISE (10km)
0144 152 VERBRUGHEN Sebastien RUNNING GROUP 00:51:42 Senior M 59 L'ANNEZINOISE (10km)
0145 97 SERLET Veronique 00:51:43 Vétéran 1 F 7 L'ANNEZINOISE (10km)
0146 51 TARTARE Maryse 00:51:48 Vétéran 2 F 1 L'ANNEZINOISE (10km)
0147 101 DELAFORGE Marc 00:51:51 Vétéran 3 M 4 L'ANNEZINOISE (10km)
0148 203 MAES DOMINIQUE 00:51:54 Vétéran 2 M 18 L'ANNEZINOISE (10km)
0149 174 DELIERS LAURENT 00:51:59 Vétéran 1 M 43 L'ANNEZINOISE (10km)
0150 113 DUSSY Henry 00:52:06 Vétéran 2 M 19 L'ANNEZINOISE (10km)
0151 98 SERLET Vincent 00:52:13 Senior M 60 L'ANNEZINOISE (10km)
0152 192 PACQUIN AMANDINE 00:52:14 Espoir F 1 L'ANNEZINOISE (10km)
0153 44 VERON Loic LOUP BLANC 00:52:15 Vétéran 1 M 44 L'ANNEZINOISE (10km)
0154 45 VERON Delphine LOUP BLANC 00:52:18 Vétéran 1 F 8 L'ANNEZINOISE (10km)
0155 181 HENOUIL DIDIER 00:52:21 Vétéran 2 M 20 L'ANNEZINOISE (10km)
0156 197 DELCROIX BERNARD 00:52:24 Vétéran 2 M 21 L'ANNEZINOISE (10km)
0157 66 CLERCQ Olivier 00:52:25 Senior M 61 L'ANNEZINOISE (10km)
0158 149 FAUQUEMBERGUE Michael RUNNING GROUP 00:52:26 Vétéran 1 M 45 L'ANNEZINOISE (10km)
0159 223 ACCART SEBASTIEN 00:52:28 Senior M 62 L'ANNEZINOISE (10km)
0160 27 DELANNOY Jean Marie 00:52:28 Vétéran 2 M 22 L'ANNEZINOISE (10km)
0161 131 MAILLAND Chrystelle 00:52:38 Vétéran 1 F 9 L'ANNEZINOISE (10km)
0162 59 CRETOM Sebastien VERMELLES AC 00:52:42 Vétéran 1 M 46 L'ANNEZINOISE (10km)
0163 218 OURDOUILLIE FREDERIC 00:52:59 Vétéran 1 M 47 L'ANNEZINOISE (10km)
0164 161 VERGNES Caroline RUNNING GROUP 00:53:04 Senior F 7 L'ANNEZINOISE (10km)
0165 167 ?Dossard #167 00:53:10 Senior M 63 L'ANNEZINOISE (10km)
0166 214 COQUIDE MURIELLE 00:53:11 Senior F 8 L'ANNEZINOISE (10km)
0167 236 PARENT BRUNEHILDE 00:53:11 Senior F 9 L'ANNEZINOISE (10km)
0168 215 LAVEYNE LAURENT 00:53:22 Senior M 64 L'ANNEZINOISE (10km)
0169 38 DELANNOY Karine JC LAPUGNOY 00:53:35 Senior F 10 L'ANNEZINOISE (10km)
0170 68 DEFONTE Eddie 00:53:43 Vétéran 2 M 23 L'ANNEZINOISE (10km)
0171 221 DELMOTTE TIFFANY RUNNING GROUPE 00:53:51 Senior F 11 L'ANNEZINOISE (10km)
0172 34 DUPONT Stephane JC LAPUGNOY 00:53:52 Vétéran 1 M 48 L'ANNEZINOISE (10km)
0173 48 PETIT Laetitia 00:53:55 Senior F 12 L'ANNEZINOISE (10km)
0174 162 VECHE Perrine RUNNING GROUP 00:53:57 Senior F 13 L'ANNEZINOISE (10km)
0175 125 MOREL Stephanie BETHUNE ATHLE 00:54:05 Senior F 14 L'ANNEZINOISE (10km)
0176 145 DECOSTER Alexandre 00:54:22 Senior M 65 L'ANNEZINOISE (10km)
0177 40 DECOBERT Georges JC LAPUGNOY 00:54:33 Senior M 66 L'ANNEZINOISE (10km)
0178 35 COLELLA Fabrice JC LAPUGNOY 00:54:35 Vétéran 1 M 49 L'ANNEZINOISE (10km)
0179 123 DUCAMP Marie Agnes 00:55:16 Vétéran 3 F 1 L'ANNEZINOISE (10km)
0180 92 LOUCHART Laurence 00:55:31 Senior F 15 L'ANNEZINOISE (10km)
0181 99 COUPET Annie 00:56:06 Senior F 16 L'ANNEZINOISE (10km)
0182 24 BERTHE Thierry 00:56:11 Vétéran 1 M 50 L'ANNEZINOISE (10km)
0183 235 PARENT CHRISTIAN 00:56:27 Vétéran 2 M 24 L'ANNEZINOISE (10km)
0184 25 PARENT Serge Artois ATHL 00:56:28 Vétéran 2 M 25 L'ANNEZINOISE (10km)
0185 56 JACOB Andree 00:56:32 Vétéran 2 F 2 L'ANNEZINOISE (10km)
0186 202 PECQ CHRISTOPHE 00:56:49 Vétéran 2 M 26 L'ANNEZINOISE (10km)
0187 119 DELABROYE Yohann 00:57:14 Senior M 67 L'ANNEZINOISE (10km)
0188 11 DUBOIS Frederic 00:57:28 Vétéran 1 M 51 L'ANNEZINOISE (10km)
0189 206 DELABROYE DIDIER 00:57:35 Vétéran 1 M 52 L'ANNEZINOISE (10km)
0190 160 LEMICHEZ Aurelien RUNNING GROUP 00:57:40 Senior M 68 L'ANNEZINOISE (10km)
0191 2 FRUCHART Fannie 00:57:51 Senior F 17 L'ANNEZINOISE (10km)
0192 3 COINE Francky 00:57:51 Senior M 69 L'ANNEZINOISE (10km)
0193 204 DASSONVILLE FREDERIC RUNNIN GROUPE 00:58:20 Vétéran 1 M 53 L'ANNEZINOISE (10km)
0194 62 HUARD Corinne 00:58:47 Vétéran 1 F 10 L'ANNEZINOISE (10km)
0195 210 D'HONOT JULIEN 00:58:49 Senior F 18 L'ANNEZINOISE (10km)
0196 65 HANNEBICQ Sophie 00:58:52 Senior F 19 L'ANNEZINOISE (10km)
0197 171 BIZET PATRICK 00:59:21 Vétéran 1 M 54 L'ANNEZINOISE (10km)
0198 157 WOUTISSETH Jean Michel RUNNING GROUP 00:59:41 Vétéran 2 M 27 L'ANNEZINOISE (10km)
0199 155 BLANQUART Daniel RUNNING GROUP 00:59:42 Vétéran 3 M 5 L'ANNEZINOISE (10km)
0200 231 HUSQUIN SANDRA 01:00:14 Vétéran 1 F 11 L'ANNEZINOISE (10km)
0201 107 CABOCHE Dorine 01:00:14 Senior F 20 L'ANNEZINOISE (10km)
0202 23 DUBRUILLE Martine 01:00:16 Vétéran 1 F 12 L'ANNEZINOISE (10km)
0203 80 BENARD Cecile Artois ATHL 01:00:27 Vétéran 2 F 3 L'ANNEZINOISE (10km)
0204 50 FLAMENT Betty 01:00:34 Senior F 21 L'ANNEZINOISE (10km)
0205 201 PECQ CORINNE 01:00:50 Vétéran 1 F 13 L'ANNEZINOISE (10km)
0206 159 MAHIEU Alice RUNNING GROUP 01:00:51 Senior F 22 L'ANNEZINOISE (10km)
0207 52 GODART Anne Artois ATHL 01:01:10 Vétéran 2 F 4 L'ANNEZINOISE (10km)
0208 12 DUBOIS Marie Anne 01:01:27 Vétéran 1 F 14 L'ANNEZINOISE (10km)
0209 117 SERGENT Jean Michel US ANNEZIN 01:01:43 Vétéran 2 M 28 L'ANNEZINOISE (10km)
0210 64 MANCEY Fanny 01:01:44 Senior F 23 L'ANNEZINOISE (10km)
0211 63 HUARD Damien 01:01:57 Junior M 6 L'ANNEZINOISE (10km)
0212 138 THOMAS Sandrine 01:02:04 Vétéran 2 F 5 L'ANNEZINOISE (10km)
0213 137 MARTOS Eric 01:02:04 Vétéran 2 M 29 L'ANNEZINOISE (10km)
0214 140 PLUQUIN Olivier 01:02:07 Vétéran 1 M 55 L'ANNEZINOISE (10km)
0215 184 WERY JOHANE 01:03:16 Vétéran 1 F 15 L'ANNEZINOISE (10km)
0216 182 BRIE CAROLINE 01:03:20 Vétéran 1 F 16 L'ANNEZINOISE (10km)
0217 122 DUCAMP Henri 01:03:56 Vétéran 3 M 6 L'ANNEZINOISE (10km)
0218 237 BOUTOILLE anne 01:03:57 Vétéran 1 F 17 L'ANNEZINOISE (10km)
0219 110 GILLET Dorine LOUP BLANC 01:05:02 Senior F 24 L'ANNEZINOISE (10km)
0220 111 LECHARDEUR Philippe LOUP BLANC 01:05:02 Vétéran 1 M 56 L'ANNEZINOISE (10km)
0221 222 ACCART ALEXANDRA 01:05:15 Senior F 25 L'ANNEZINOISE (10km)
0222 90 CHOQUET Karine 01:05:25 Senior F 26 L'ANNEZINOISE (10km)
0223 217 MATHYS GEORGES 01:05:57 Vétéran 2 M 30 L'ANNEZINOISE (10km)
0224 188 STIEVENART ELODIE 01:08:46 Senior F 27 L'ANNEZINOISE (10km)
DNS 1 EVRAD Guillaume 00:00:00 Senior M DNS L'ANNEZINOISE (10km)
DNS 5 CAMBIER Pierre 00:00:00 Senior M DNS L'ANNEZINOISE (10km)
DNS 13 CLAY Vincent 00:00:00 Vétéran 1 M DNS L'ANNEZINOISE (10km)
DNS 14 DUCROCQ Christelle 00:00:00 Vétéran 1 F DNS L'ANNEZINOISE (10km)
DNS 16 MERLIER Benoit 00:00:00 Senior M DNS L'ANNEZINOISE (10km)
DNS 36 DUFOUR Julie 00:00:00 Senior F DNS L'ANNEZINOISE (10km)
DNS 37 DUCLOY Samuel 00:00:00 Senior M DNS L'ANNEZINOISE (10km)
DNS 115 DENEUVILLE Romain 00:00:00 Senior F DNS L'ANNEZINOISE (10km)
DNS 120 FLAMENT Cedric 00:00:00 Senior M DNS L'ANNEZINOISE (10km)
DNS 130 BOCQUET Eric 00:00:00 Vétéran 1 M DNS L'ANNEZINOISE (10km)
DNS 179 LOTHE GREGOIRE 00:00:00 Junior M DNS L'ANNEZINOISE (10km)
DNS 190 VEZILIER ARTHUR 00:00:00 Espoir M DNS L'ANNEZINOISE (10km)


LA POPULAIRE (5km)
Scratch N° dossard Nom Prénom Club Temps Cat. Clt. Cat. Course
0001 391 BRAHIM arnaud vermelles 00:16:57 Senior M 1 LA POPULAIRE (5km)
0002 357 VITTY Guillaume artois athl 00:17:50 Senior M 2 LA POPULAIRE (5km)
0003 389 LOEUILLIEUX alain 00:17:55 Vétéran 1 M 1 LA POPULAIRE (5km)
0004 407 PAWLICKI nathan 00:18:03 Espoir M 1 LA POPULAIRE (5km)
0005 393 CASSEZ remy 00:18:22 Senior M 3 LA POPULAIRE (5km)
0006 396 MORTREUX franck twv 00:18:27 Vétéran 1 M 2 LA POPULAIRE (5km)
0007 413 CHARLES vincent artois athletisme 00:18:33 Senior M 4 LA POPULAIRE (5km)
0008 403 FEBVIN david artois athletisme 00:19:00 Vétéran 1 M 3 LA POPULAIRE (5km)
0009 355 BOULANGER Jordan 00:19:02 Espoir M 2 LA POPULAIRE (5km)
0010 408 PAWLICKI thomas 00:19:18 Cadet M 1 LA POPULAIRE (5km)
0011 398 FRANCOIS guillaume 00:19:31 Senior M 5 LA POPULAIRE (5km)
0012 345 KACZYSNGK Florian TRIATHLON CLUB DE LIEVIN 00:19:37 Cadet M 2 LA POPULAIRE (5km)
0013 350 FAVRIL Lucien béthune athl 00:19:58 Cadet M 3 LA POPULAIRE (5km)
0014 358 VARLET Honoré artois athl 00:19:59 Senior M 6 LA POPULAIRE (5km)
0015 404 GIBSON cedric artois atheltisme 00:20:01 Junior M 1 LA POPULAIRE (5km)
0016 377 WAGON Arnaud 00:20:16 Vétéran 2 M 1 LA POPULAIRE (5km)
0017 365 CARPENTIER Agathe artois athl 00:20:23 Cadet F 1 LA POPULAIRE (5km)
0018 328 BLED Christophe 00:20:34 Vétéran 1 M 4 LA POPULAIRE (5km)
0019 311 BOURRE Fabrice LOUP BLANC 00:20:42 Vétéran 1 M 5 LA POPULAIRE (5km)
0020 382 DUPONCHEL Matthieu 00:20:43 Senior M 7 LA POPULAIRE (5km)
0021 315 MOLCRETTE Baptiste Artois ATHLE 00:20:44 Minime M 1 LA POPULAIRE (5km)
0022 390 ROUACHE mohamed artois athletisme 00:21:00 Senior M 8 LA POPULAIRE (5km)
0023 392 BRINGUETZ michel 00:21:06 Vétéran 1 M 6 LA POPULAIRE (5km)
0024 354 COUSIN Damien 00:21:23 Vétéran 1 M 7 LA POPULAIRE (5km)
0025 385 YVONNOU sabrina 00:21:27 Senior F 1 LA POPULAIRE (5km)
0026 343 FAVIER Patrice 00:21:32 Vétéran 1 M 8 LA POPULAIRE (5km)
0027 381 DEGRUGILLIER Frédéric 00:21:33 Vétéran 1 M 9 LA POPULAIRE (5km)
0028 326 HOBERG Florian MARLES RUNNING 00:22:01 Espoir M 3 LA POPULAIRE (5km)
0029 387 ROUSSEL patrick 00:22:17 Vétéran 2 M 2 LA POPULAIRE (5km)
0030 306 LHOMBART Julien 00:22:17 Senior M 9 LA POPULAIRE (5km)
0031 402 DUPONCHELLEJEAN BERNARD 00:22:32 Vétéran 1 M 10 LA POPULAIRE (5km)
0032 362 LELEU Maryline 00:22:33 Vétéran 1 F 1 LA POPULAIRE (5km)
0033 369 JOLY Gregory 00:22:44 Senior M 10 LA POPULAIRE (5km)
0034 361 NOWCZYN Helene artois athl 00:22:50 Vétéran 1 F 2 LA POPULAIRE (5km)
0035 314 MOLCRETTE Martin 00:23:00 Cadet M 4 LA POPULAIRE (5km)
0036 414 MARQUILLY dominique st venant 00:23:27 Vétéran 3 F 1 LA POPULAIRE (5km)
0037 347 KUBISIAK Remy G SAND 00:23:33 Vétéran 1 M 11 LA POPULAIRE (5km)
0038 376 BONIFACE Chloé artois athl 00:23:35 Cadet F 2 LA POPULAIRE (5km)
0039 418 BROUSSE martin 00:23:37 Junior M 2 LA POPULAIRE (5km)
0040 395 CLAIRET teddy artois atheltisme 00:23:42 Senior M 11 LA POPULAIRE (5km)
0041 370 LEGROS Jerome 00:23:44 Vétéran 1 M 12 LA POPULAIRE (5km)
0042 394 GRAVELEINE pascal 00:23:45 Vétéran 2 M 3 LA POPULAIRE (5km)
0043 308 GAMBIER Giovani TEAM RRM 00:23:47 Cadet M 5 LA POPULAIRE (5km)
0044 363 LELEU Gilles 00:24:21 Vétéran 1 M 13 LA POPULAIRE (5km)
0045 320 DECOFOUR Jerome 00:24:22 Vétéran 1 M 14 LA POPULAIRE (5km)
0046 388 BOULARD christophe 00:24:25 Vétéran 1 M 15 LA POPULAIRE (5km)
0047 379 DHEDIN Ludovic 00:24:29 Senior M 12 LA POPULAIRE (5km)
0048 351 VANACKER Pierre-Louis 00:24:56 Cadet M 6 LA POPULAIRE (5km)
0049 325 HOBERG Pascal MARLES RUNNING 00:25:02 Vétéran 1 M 16 LA POPULAIRE (5km)
0050 412 LEGALLIC pierre yves 00:25:34 Vétéran 2 M 4 LA POPULAIRE (5km)
0051 305 PATTYN Gregory 00:25:39 Vétéran 1 M 17 LA POPULAIRE (5km)
0052 360 SZABLOWSKI Hugo golf bethune 00:25:40 Minime M 2 LA POPULAIRE (5km)
0053 348 BOUCHEZ Sylvie 00:25:49 Vétéran 2 F 1 LA POPULAIRE (5km)
0054 302 DUTAILLY Valentin 00:25:54 Espoir M 4 LA POPULAIRE (5km)
0055 356 BOULANGER Eric 00:25:59 Vétéran 2 M 5 LA POPULAIRE (5km)
0056 383 MOLIN thomas artois athletisme 00:26:23 Cadet M 7 LA POPULAIRE (5km)
0057 386 MALUHA audrey 00:26:28 Senior F 2 LA POPULAIRE (5km)
0058 374 PLUQUIN Raphael 00:26:31 Cadet M 8 LA POPULAIRE (5km)
0059 313 BOURRE Fabien LOUP BLANC 00:26:31 Cadet M 9 LA POPULAIRE (5km)
0060 372 PINCEDÉ Julien 00:26:32 Minime M 3 LA POPULAIRE (5km)
0061 309 HEDOIRE Odile AS LENS AGGLO 00:26:35 Vétéran 2 F 2 LA POPULAIRE (5km)
0062 334 LEGRAND Antoine 00:26:37 Senior M 13 LA POPULAIRE (5km)
0063 341 BAUTISTA Lea 00:26:38 Cadet F 3 LA POPULAIRE (5km)
0064 330 GOBLED Pascale 00:26:38 Vétéran 2 F 3 LA POPULAIRE (5km)
0065 340 BAUTISTA Veronique 00:27:16 Vétéran 1 F 3 LA POPULAIRE (5km)
0066 416 DUTOIT alexandre' 00:27:17 Senior M 14 LA POPULAIRE (5km)
0067 417 DUTOIT laurent 00:27:24 Vétéran 1 M 18 LA POPULAIRE (5km)
0068 411 REZZIK nadia bethune atheltisme1980 00:27:27 Senior F 3 LA POPULAIRE (5km)
0069 329 BLED Nathalie 00:27:28 Vétéran 1 F 4 LA POPULAIRE (5km)
0070 384 FOSSE charlotte 00:27:40 Senior F 4 LA POPULAIRE (5km)
0071 364 PAIR Véronique 00:27:40 Junior F 1 LA POPULAIRE (5km)
0072 368 FARSGAND Pascal artois athl 00:27:40 Vétéran 1 M 19 LA POPULAIRE (5km)
0073 409 DERETZ philippe as le nid du moulin 00:27:47 Vétéran 1 M 20 LA POPULAIRE (5km)
0074 338 AGUIAR Renata 00:28:06 Senior F 5 LA POPULAIRE (5km)
0075 335 OBOEUF Alain 00:28:22 Vétéran 1 M 21 LA POPULAIRE (5km)
0076 322 DELLISTE Cathy 00:28:24 Vétéran 1 F 5 LA POPULAIRE (5km)
0077 323 PERCHE Frederic 00:28:27 Vétéran 1 M 22 LA POPULAIRE (5km)
0078 321 VINCENT Philippe 00:28:27 Vétéran 1 M 23 LA POPULAIRE (5km)
0079 339 DELAFOSSE Astrid 00:28:30 Junior F 2 LA POPULAIRE (5km)
0080 342 FRUCHART Veronique 00:28:44 Vétéran 1 F 6 LA POPULAIRE (5km)
0081 307 DURANT Muriel TEAM RRM 00:28:59 Vétéran 2 F 4 LA POPULAIRE (5km)
0082 405 JACQUET delphine 00:29:00 Junior F 3 LA POPULAIRE (5km)
0083 346 TASIEMSKI Geraldine Artois ATHL 00:29:00 Senior F 6 LA POPULAIRE (5km)
0084 349 DEBRAY Helene 00:29:13 Senior F 7 LA POPULAIRE (5km)
0085 371 DELEBASSEE Rodolphe 00:29:29 Vétéran 1 M 24 LA POPULAIRE (5km)
0086 337 THELLIER Edwige 00:29:35 Vétéran 1 F 7 LA POPULAIRE (5km)
0087 359 BRETIN Ludovic 00:29:45 Vétéran 1 M 25 LA POPULAIRE (5km)
0088 303 HOLLANDER Pierre 00:29:46 Vétéran 3 M 1 LA POPULAIRE (5km)
0089 344 KACZYSNGK Chantal 00:29:49 Vétéran 2 F 5 LA POPULAIRE (5km)
0090 366 CARON Laetitia 00:30:05 Senior F 8 LA POPULAIRE (5km)
0091 397 ROOSE sandrine 00:30:19 Vétéran 1 F 8 LA POPULAIRE (5km)
0092 333 DELIERS Marie-France Artois ATHLE 00:30:23 Vétéran 1 F 9 LA POPULAIRE (5km)
0093 332 CRETOM Sandra VERMELLES AC 00:30:27 Vétéran 1 F 10 LA POPULAIRE (5km)
0094 406 HAVEGHEER caroline villeneuve d ascq 00:30:31 Senior F 9 LA POPULAIRE (5km)
0095 312 BOURRE Veronique LOUP BLANC 00:30:33 Vétéran 1 F 11 LA POPULAIRE (5km)
0096 367 TYTECA Philippe 00:30:33 Vétéran 1 M 26 LA POPULAIRE (5km)
0097 373 PINCEDÉ Laurence 00:30:35 Vétéran 1 F 12 LA POPULAIRE (5km)
0098 375 BONIFACE Marie artois athl 00:30:41 Vétéran 1 F 13 LA POPULAIRE (5km)
0099 318 DELALLEAU Manuela 00:31:10 Vétéran 1 F 14 LA POPULAIRE (5km)
0100 399 LECLERCQ melanie 00:31:32 Senior F 10 LA POPULAIRE (5km)
0101 316 MARTIN Christine 00:31:46 Senior F 11 LA POPULAIRE (5km)
0102 304 DELFORGE Louise Artois ATHLE 00:32:01 Cadet F 4 LA POPULAIRE (5km)
0103 310 MANSE Caroline 00:32:11 Vétéran 1 F 15 LA POPULAIRE (5km)
0104 301 GOYEZ Delphine 00:33:44 Vétéran 1 F 16 LA POPULAIRE (5km)
0105 327 CAPELLE Carole 00:33:44 Vétéran 1 F 17 LA POPULAIRE (5km)
0106 336 HUARD Mathieu 00:33:46 Junior M 3 LA POPULAIRE (5km)
0107 353 DELATTRE Anais 00:33:48 Espoir F 1 LA POPULAIRE (5km)
0108 352 VANACKER Justine 00:33:48 Espoir F 2 LA POPULAIRE (5km)
0109 401 FREVILLE laurine 00:34:06 Vétéran 4 F 1 LA POPULAIRE (5km)
0110 400 FREVILLE matthieu 00:34:07 Senior M 15 LA POPULAIRE (5km)
0111 378 BOURDON Céline 00:34:14 Senior F 12 LA POPULAIRE (5km)
0112 319 LEFEBVRE Valerie 00:34:16 Senior F 13 LA POPULAIRE (5km)
0113 324 LAURENT Peggy 00:34:23 Senior F 14 LA POPULAIRE (5km)
0114 331 CASSEZ Francoise VERMELLES AC 00:34:53 Vétéran 3 F 2 LA POPULAIRE (5km)
0115 410 POTIER didier AS le nid du moulin1982 00:37:23 Senior M 16 LA POPULAIRE (5km)
0116 317 DUPONCHELLE Veronique 00:39:11 Vétéran 1 F 18 LA POPULAIRE (5km)
DNS 380 CRETOM Sebastien vermelleS 00:00:00 Vétéran 1 M DNS LA POPULAIRE (5km)